Time,TemperatureF,DewpointF,PressureIn,WindDirection,WindDirectionDegrees,WindSpeedMPH,WindSpeedGustMPH,Humidity,HourlyPrecipIn,Conditions,Clouds,dailyrainin,SoftwareType,DateUTC
2013-05-14 00:05:00,47.7,33.0,30.09,WSW,242,0.0,7.0,58,0.00,,,0.00,weatherlink.com 1.10,2013-05-14 04:05:00,
2013-05-14 00:20:00,47.5,33.0,30.09,West,281,1.0,7.0,58,0.00,,,0.00,weatherlink.com 1.10,2013-05-14 04:20:00,
2013-05-14 00:35:00,47.3,34.0,30.09,WNW,291,2.0,6.0,60,0.00,,,0.00,weatherlink.com 1.10,2013-05-14 04:35:00,
2013-05-14 00:50:00,47.3,33.0,30.09,WSW,256,1.0,6.0,59,0.00,,,0.00,weatherlink.com 1.10,2013-05-14 04:50:00,
2013-05-14 01:05:00,47.3,33.0,30.09,West,276,2.0,3.0,59,0.00,,,0.00,weatherlink.com 1.10,2013-05-14 05:05:00,
2013-05-14 01:20:00,47.3,33.0,30.09,West,259,0.0,5.0,57,0.00,,,0.00,weatherlink.com 1.10,2013-05-14 05:20:00,
2013-05-14 01:35:00,47.3,33.0,30.09,ENE,59,0.0,5.0,57,0.00,,,0.00,weatherlink.com 1.10,2013-05-14 05:35:00,
2013-05-14 01:50:00,46.9,33.0,30.09,SW,225,0.0,2.0,59,0.00,,,0.00,weatherlink.com 1.10,2013-05-14 05:50:00,
2013-05-14 02:05:00,46.7,32.0,30.09,West,272,3.0,4.0,58,0.00,,,0.00,weatherlink.com 1.10,2013-05-14 06:05:00,
2013-05-14 02:20:00,46.7,33.0,30.09,NW,311,2.0,8.0,59,0.00,,,0.00,weatherlink.com 1.10,2013-05-14 06:20:00,
2013-05-14 02:35:00,46.4,34.0,30.09,WNW,293,2.0,6.0,62,0.00,,,0.00,weatherlink.com 1.10,2013-05-14 06:35:00,
2013-05-14 02:50:00,46.1,34.0,30.09,WNW,288,4.0,5.0,63,0.00,,,0.00,weatherlink.com 1.10,2013-05-14 06:50:00,
2013-05-14 03:05:00,46.0,34.0,30.10,NW,307,4.0,8.0,63,0.00,,,0.00,weatherlink.com 1.10,2013-05-14 07:05:00,
2013-05-14 03:20:00,45.8,34.0,30.09,West,278,3.0,8.0,63,0.00,,,0.00,weatherlink.com 1.10,2013-05-14 07:20:00,
2013-05-14 03:35:00,45.7,34.0,30.09,WSW,256,2.0,8.0,63,0.00,,,0.00,weatherlink.com 1.10,2013-05-14 07:35:00,
2013-05-14 03:50:00,45.6,34.0,30.09,WNW,294,3.0,6.0,64,0.00,,,0.00,weatherlink.com 1.10,2013-05-14 07:50:00,
2013-05-14 04:05:00,45.4,34.0,30.09,West,278,2.0,9.0,64,0.00,,,0.00,weatherlink.com 1.10,2013-05-14 08:05:00,
2013-05-14 04:21:00,45.3,33.0,30.09,WSW,257,3.0,8.0,63,0.00,,,0.00,weatherlink.com 1.10,2013-05-14 08:21:00,
2013-05-14 04:36:00,45.2,33.0,30.09,WNW,292,7.0,10.0,62,0.00,,,0.00,weatherlink.com 1.10,2013-05-14 08:36:00,
2013-05-14 04:51:00,45.0,32.0,30.09,WNW,283,3.0,11.0,61,0.00,,,0.00,weatherlink.com 1.10,2013-05-14 08:51:00,
2013-05-14 05:06:00,44.9,32.0,30.09,WSW,238,1.0,6.0,62,0.00,,,0.00,weatherlink.com 1.10,2013-05-14 09:06:00,
2013-05-14 05:21:00,44.8,32.0,30.09,West,270,1.0,8.0,62,0.00,,,0.00,weatherlink.com 1.10,2013-05-14 09:21:00,
2013-05-14 05:36:00,44.5,32.0,30.09,WNW,284,3.0,6.0,62,0.00,,,0.00,weatherlink.com 1.10,2013-05-14 09:36:00,
2013-05-14 05:51:00,44.4,32.0,30.09,West,274,1.0,8.0,62,0.00,,,0.00,weatherlink.com 1.10,2013-05-14 09:51:00,
2013-05-14 06:06:00,44.4,32.0,30.10,West,259,3.0,5.0,62,0.00,,,0.00,weatherlink.com 1.10,2013-05-14 10:06:00,
2013-05-14 06:21:00,44.5,32.0,30.10,West,280,0.0,9.0,62,0.00,,,0.00,weatherlink.com 1.10,2013-05-14 10:21:00,
2013-05-14 06:36:00,44.8,32.0,30.11,WNW,288,3.0,8.0,61,0.00,,,0.00,weatherlink.com 1.10,2013-05-14 10:36:00,
2013-05-14 06:51:00,45.1,31.0,30.11,SSW,204,6.0,12.0,59,0.00,,,0.00,weatherlink.com 1.10,2013-05-14 10:51:00,
2013-05-14 07:06:00,45.4,32.0,30.11,WNW,297,8.0,10.0,59,0.00,,,0.00,weatherlink.com 1.10,2013-05-14 11:06:00,
2013-05-14 07:21:00,45.9,32.0,30.11,WSW,249,3.0,7.0,59,0.00,,,0.00,weatherlink.com 1.10,2013-05-14 11:21:00,
2013-05-14 07:36:00,46.8,32.0,30.11,WSW,249,0.0,8.0,57,0.00,,,0.00,weatherlink.com 1.10,2013-05-14 11:36:00,
2013-05-14 07:51:00,47.5,32.0,30.11,WNW,292,2.0,7.0,56,0.00,,,0.00,weatherlink.com 1.10,2013-05-14 11:51:00,
2013-05-14 08:06:00,48.3,33.0,30.11,West,280,0.0,6.0,55,0.00,,,0.00,weatherlink.com 1.10,2013-05-14 12:06:00,
2013-05-14 08:21:00,49.2,32.0,30.11,West,274,6.0,6.0,52,0.00,,,0.00,weatherlink.com 1.10,2013-05-14 12:21:00,
2013-05-14 08:36:00,49.8,32.0,30.11,West,281,2.0,7.0,51,0.00,,,0.00,weatherlink.com 1.10,2013-05-14 12:36:00,
2013-05-14 08:51:00,50.2,32.0,30.11,West,269,8.0,10.0,50,0.00,,,0.00,weatherlink.com 1.10,2013-05-14 12:51:00,
2013-05-14 09:06:00,50.1,30.0,30.11,West,274,4.0,11.0,47,0.00,,,0.00,weatherlink.com 1.10,2013-05-14 13:06:00,
2013-05-14 09:21:00,51.1,31.0,30.11,East,81,1.0,8.0,46,0.00,,,0.00,weatherlink.com 1.10,2013-05-14 13:21:00,
2013-05-14 09:36:00,52.2,31.0,30.11,WNW,287,5.0,7.0,44,0.00,,,0.00,weatherlink.com 1.10,2013-05-14 13:36:00,
2013-05-14 09:51:00,53.0,30.0,30.10,WSW,243,2.0,9.0,41,0.00,,,0.00,weatherlink.com 1.10,2013-05-14 13:51:00,
2013-05-14 10:06:00,53.0,28.0,30.10,WSW,246,2.0,10.0,39,0.00,,,0.00,weatherlink.com 1.10,2013-05-14 14:06:00,
2013-05-14 10:21:00,53.3,27.0,30.10,WNW,295,3.0,12.0,37,0.00,,,0.00,weatherlink.com 1.10,2013-05-14 14:21:00,
2013-05-14 10:36:00,54.5,28.0,30.10,West,278,4.0,10.0,37,0.00,,,0.00,weatherlink.com 1.10,2013-05-14 14:36:00,
2013-05-14 10:51:00,54.3,28.0,30.10,NW,326,3.0,8.0,36,0.00,,,0.00,weatherlink.com 1.10,2013-05-14 14:51:00,
2013-05-14 11:06:00,54.4,26.0,30.10,West,281,1.0,11.0,33,0.00,,,0.00,weatherlink.com 1.10,2013-05-14 15:06:00,
2013-05-14 11:21:00,55.3,27.0,30.10,West,266,4.0,7.0,34,0.00,,,0.00,weatherlink.com 1.10,2013-05-14 15:21:00,
2013-05-14 11:36:00,55.1,28.0,30.09,WNW,297,0.0,8.0,35,0.00,,,0.00,weatherlink.com 1.10,2013-05-14 15:36:00,
2013-05-14 11:51:00,55.2,26.0,30.09,NW,315,3.0,11.0,33,0.00,,,0.00,weatherlink.com 1.10,2013-05-14 15:51:00,
2013-05-14 12:06:00,56.1,26.0,30.09,WNW,300,3.0,7.0,32,0.00,,,0.00,weatherlink.com 1.10,2013-05-14 16:06:00,
2013-05-14 12:21:00,57.1,27.0,30.08,NE,35,0.0,6.0,31,0.00,,,0.00,weatherlink.com 1.10,2013-05-14 16:21:00,
2013-05-14 12:36:00,57.2,27.0,30.08,WNW,297,3.0,7.0,31,0.00,,,0.00,weatherlink.com 1.10,2013-05-14 16:36:00,
2013-05-14 12:51:00,57.1,27.0,30.08,WNW,292,3.0,9.0,31,0.00,,,0.00,weatherlink.com 1.10,2013-05-14 16:51:00,
2013-05-14 13:06:00,57.6,26.0,30.08,WNW,282,2.0,11.0,30,0.00,,,0.00,weatherlink.com 1.10,2013-05-14 17:06:00,
2013-05-14 13:22:00,57.1,26.0,30.08,NW,308,4.0,9.0,30,0.00,,,0.00,weatherlink.com 1.10,2013-05-14 17:22:00,
2013-05-14 13:37:00,58.1,26.0,30.08,North,354,4.0,9.0,29,0.00,,,0.00,weatherlink.com 1.10,2013-05-14 17:37:00,
2013-05-14 13:52:00,59.1,27.0,30.07,WNW,288,5.0,8.0,29,0.00,,,0.00,weatherlink.com 1.10,2013-05-14 17:52:00,
2013-05-14 14:07:00,58.6,25.0,30.06,NW,304,4.0,12.0,28,0.00,,,0.00,weatherlink.com 1.10,2013-05-14 18:07:00,
2013-05-14 14:22:00,58.7,25.0,30.06,West,266,1.0,10.0,28,0.00,,,0.00,weatherlink.com 1.10,2013-05-14 18:22:00,
2013-05-14 14:37:00,58.5,25.0,30.06,West,273,4.0,8.0,28,0.00,,,0.00,weatherlink.com 1.10,2013-05-14 18:37:00,
2013-05-14 14:52:00,59.6,25.0,30.05,WNW,294,1.0,8.0,27,0.00,,,0.00,weatherlink.com 1.10,2013-05-14 18:52:00,
2013-05-14 15:07:00,59.9,26.0,30.05,South,170,1.0,5.0,27,0.00,,,0.00,weatherlink.com 1.10,2013-05-14 19:07:00,
2013-05-14 15:22:00,60.5,22.0,30.04,West,274,4.0,12.0,23,0.00,,,0.00,weatherlink.com 1.10,2013-05-14 19:22:00,
2013-05-14 15:37:00,60.5,22.0,30.04,WSW,255,9.0,9.0,23,0.00,,,0.00,weatherlink.com 1.10,2013-05-14 19:37:00,
2013-05-14 15:52:00,60.9,24.0,30.03,West,259,5.0,6.0,24,0.00,,,0.00,weatherlink.com 1.10,2013-05-14 19:52:00,
2013-05-14 16:07:00,61.4,24.0,30.02,East,79,0.0,7.0,24,0.00,,,0.00,weatherlink.com 1.10,2013-05-14 20:07:00,
2013-05-14 16:22:00,61.5,23.0,30.02,WNW,289,1.0,8.0,23,0.00,,,0.00,weatherlink.com 1.10,2013-05-14 20:22:00,
2013-05-14 16:37:00,61.7,22.0,30.02,WNW,283,2.0,9.0,22,0.00,,,0.00,weatherlink.com 1.10,2013-05-14 20:37:00,
2013-05-14 16:52:00,61.9,21.0,30.02,WNW,297,3.0,12.0,21,0.00,,,0.00,weatherlink.com 1.10,2013-05-14 20:52:00,
2013-05-14 17:07:00,61.5,21.0,30.01,WNW,288,1.0,7.0,21,0.00,,,0.00,weatherlink.com 1.10,2013-05-14 21:07:00,
2013-05-14 17:22:00,62.7,23.0,30.02,WNW,283,3.0,5.0,22,0.00,,,0.00,weatherlink.com 1.10,2013-05-14 21:22:00,
2013-05-14 17:37:00,62.6,21.0,30.01,SW,225,0.0,11.0,20,0.00,,,0.00,weatherlink.com 1.10,2013-05-14 21:37:00,
2013-05-14 17:52:00,63.0,21.0,30.01,West,274,0.0,6.0,20,0.00,,,0.00,weatherlink.com 1.10,2013-05-14 21:52:00,
2013-05-14 18:07:00,62.5,22.0,30.00,WSW,251,1.0,6.0,21,0.00,,,0.00,weatherlink.com 1.10,2013-05-14 22:07:00,
2013-05-14 18:22:00,63.0,22.0,30.00,West,278,3.0,8.0,21,0.00,,,0.00,weatherlink.com 1.10,2013-05-14 22:22:00,
2013-05-14 18:37:00,62.5,22.0,30.01,NW,306,6.0,9.0,21,0.00,,,0.00,weatherlink.com 1.10,2013-05-14 22:37:00,
2013-05-14 18:52:00,61.8,20.0,30.01,West,277,6.0,11.0,20,0.00,,,0.00,weatherlink.com 1.10,2013-05-14 22:52:00,
2013-05-14 19:07:00,60.9,21.0,30.01,WNW,293,6.0,8.0,21,0.00,,,0.00,weatherlink.com 1.10,2013-05-14 23:07:00,
2013-05-14 19:22:00,60.4,20.0,30.02,WNW,289,2.0,5.0,21,0.00,,,0.00,weatherlink.com 1.10,2013-05-14 23:22:00,
2013-05-14 19:37:00,60.0,22.0,30.01,NNE,12,0.0,8.0,23,0.00,,,0.00,weatherlink.com 1.10,2013-05-14 23:37:00,
2013-05-14 19:52:00,59.4,21.0,30.01,WSW,251,0.0,4.0,23,0.00,,,0.00,weatherlink.com 1.10,2013-05-14 23:52:00,
2013-05-14 20:07:00,59.3,22.0,30.01,NW,311,2.0,6.0,24,0.00,,,0.00,weatherlink.com 1.10,2013-05-15 00:07:00,
2013-05-14 20:22:00,59.2,22.0,30.01,West,264,2.0,6.0,24,0.00,,,0.00,weatherlink.com 1.10,2013-05-15 00:22:00,
2013-05-14 20:37:00,59.2,22.0,30.02,West,281,1.0,4.0,24,0.00,,,0.00,weatherlink.com 1.10,2013-05-15 00:37:00,
2013-05-14 20:52:00,59.1,22.0,30.02,WNW,302,1.0,4.0,24,0.00,,,0.00,weatherlink.com 1.10,2013-05-15 00:52:00,
2013-05-14 21:07:00,58.5,23.0,30.02,West,271,1.0,3.0,25,0.00,,,0.00,weatherlink.com 1.10,2013-05-15 01:07:00,
2013-05-14 21:22:00,58.0,26.0,30.03,West,278,0.0,3.0,29,0.00,,,0.00,weatherlink.com 1.10,2013-05-15 01:22:00,
2013-05-14 21:37:00,57.8,26.0,30.03,WNW,285,0.0,3.0,30,0.00,,,0.00,weatherlink.com 1.10,2013-05-15 01:37:00,
2013-05-14 21:52:00,57.6,26.0,30.04,WSW,258,0.0,3.0,30,0.00,,,0.00,weatherlink.com 1.10,2013-05-15 01:52:00,
2013-05-14 22:07:00,57.5,28.0,30.04,SW,224,0.0,3.0,32,0.00,,,0.00,weatherlink.com 1.10,2013-05-15 02:07:00,
2013-05-14 22:22:00,56.7,28.0,30.05,SW,214,0.0,1.0,33,0.00,,,0.00,weatherlink.com 1.10,2013-05-15 02:22:00,
2013-05-14 22:37:00,56.4,27.0,30.05,WSW,248,1.0,1.0,33,0.00,,,0.00,weatherlink.com 1.10,2013-05-15 02:37:00,
2013-05-14 22:52:00,55.3,38.0,30.05,WSW,240,0.0,3.0,53,0.00,,,0.00,weatherlink.com 1.10,2013-05-15 02:52:00,
2013-05-14 23:07:00,54.3,39.0,30.05,SSW,194,1.0,2.0,56,0.00,,,0.00,weatherlink.com 1.10,2013-05-15 03:07:00,
2013-05-14 23:22:00,54.2,38.0,30.05,West,278,0.0,2.0,55,0.00,,,0.00,weatherlink.com 1.10,2013-05-15 03:22:00,
2013-05-14 23:37:00,53.8,39.0,30.05,SSW,194,0.0,2.0,57,0.00,,,0.00,weatherlink.com 1.10,2013-05-15 03:37:00,
2013-05-14 23:52:00,53.8,38.0,30.05,South,170,0.0,4.0,55,0.00,,,0.00,weatherlink.com 1.10,2013-05-15 03:52:00,